Date,TemperatureHighF,TemperatureAvgF,TemperatureLowF,DewpointHighF,DewpointAvgF,DewpointLowF,HumidityHigh,HumidityAvg,HumidityLow,PressureMaxIn,PressureMinIn,WindSpeedMaxMPH,WindSpeedAvgMPH,GustSpeedMaxMPH,PrecipitationSumIn
2013-1-1,39.9,37.8,27.8,32.0,27.7,14.6,77,67,56,29.97,29.80,21,6,22,0.00
2013-1-2,32.4,28.0,22.8,20.6,17.1,12.9,72,63,57,30.14,29.96,18,4,19,0.00
2013-1-3,32.6,27.5,22.4,21.5,19.0,16.4,79,70,57,30.18,30.04,13,2,15,0.00
2013-1-4,40.3,34.1,29.4,26.5,23.9,21.1,77,66,54,30.06,29.91,18,3,19,0.00
2013-1-5,43.9,34.9,27.4,28.2,24.5,21.6,88,67,51,30.25,29.97,21,3,21,0.00
2013-1-6,47.3,37.7,29.1,35.8,30.8,25.7,93,77,56,30.21,29.95,11,1,13,0.00
2013-1-7,46.3,36.9,26.7,34.5,28.4,23.0,87,72,48,30.38,30.02,15,3,17,0.00
2013-1-8,50.6,37.6,26.3,37.4,31.1,23.1,95,79,54,30.42,30.32,16,2,19,0.00
2013-1-9,48.8,40.3,27.5,42.3,34.6,25.8,96,81,63,30.37,30.08,17,2,18,0.00
2013-1-10,48.2,42.1,32.6,35.3,29.0,26.3,80,60,44,30.53,30.18,20,4,21,0.00
2013-1-11,46.5,39.9,30.8,46.0,35.2,26.9,98,83,70,30.52,30.09,8,1,9,0.33
2013-1-12,48.4,43.5,41.8,47.8,43.0,41.3,98,98,96,30.17,30.04,17,3,18,0.11
2013-1-13,49.0,44.8,40.2,48.7,44.3,39.7,100,98,96,30.15,30.00,13,1,13,0.00
2013-1-14,57.1,49.5,37.0,55.0,46.0,33.2,99,88,66,30.26,29.90,16,3,18,0.03
2013-1-15,38.7,36.9,34.7,34.1,31.5,28.8,93,81,71,30.31,30.18,12,3,14,0.07
2013-1-16,36.9,35.2,33.7,36.4,34.2,30.9,100,96,82,30.21,29.76,12,3,17,0.52
2013-1-17,44.5,39.2,34.3,35.8,33.3,25.4,96,80,61,30.08,29.88,17,3,19,0.02
2013-1-18,34.3,29.1,25.3,25.5,17.3,10.4,71,61,46,30.40,29.98,23,7,23,0.00
2013-1-19,52.2,40.6,23.1,37.2,29.1,15.8,77,64,43,30.41,29.91,15,5,30,0.00
2013-1-20,55.9,42.5,30.3,35.1,31.0,14.9,76,65,27,30.00,29.65,30,5,30,0.00
2013-1-21,33.2,29.2,23.2,24.1,17.8,13.1,82,63,49,30.09,29.80,14,2,17,0.00
2013-1-22,28.8,21.8,14.1,21.2,5.7,-5.0,74,50,36,30.16,29.79,23,7,28,0.00
2013-1-23,22.1,16.1,11.8,3.3,0.2,-3.9,61,49,37,30.23,30.13,19,5,22,0.00
2013-1-24,24.2,17.4,9.6,8.6,3.9,1.1,78,56,37,30.35,30.11,31,6,31,0.00
2013-1-25,26.2,19.6,12.5,18.2,9.5,3.5,88,66,41,30.39,30.05,18,2,20,0.00
2013-1-26,26.8,21.6,15.9,16.2,12.6,8.0,87,69,52,30.34,30.02,25,5,25,0.00
2013-1-27,33.5,24.6,14.1,17.7,13.6,8.8,82,64,42,30.49,30.33,15,2,19,0.01
2013-1-28,35.3,30.1,20.6,34.3,26.4,14.8,96,86,67,30.47,29.98,12,1,13,0.10
2013-1-29,42.2,38.6,35.3,38.7,36.8,34.0,97,93,85,30.15,29.97,8,2,9,0.04
2013-1-30,56.0,50.5,39.1,55.0,49.8,38.3,99,97,95,30.09,29.40,26,6,31,0.00
2013-1-31,57.7,46.1,29.7,57.1,34.3,13.4,100,66,39,29.74,29.05,36,10,39,0.31
2013-2-1,32.5,28.9,24.7,16.6,13.5,7.8,63,52,40,30.19,29.74,27,6,28,0.00
2013-2-2,34.1,25.8,19.7,22.4,12.5,9.2,89,58,37,30.28,30.05,18,3,22,0.00
2013-2-3,31.1,26.5,22.4,23.6,20.9,17.9,93,80,58,30.05,29.76,12,2,12,0.01
2013-2-4,33.8,27.6,23.4,22.9,15.4,11.8,84,61,42,29.97,29.77,22,5,22,0.00
2013-2-5,30.9,28.8,26.7,29.0,25.5,15.8,93,87,63,29.97,29.88,13,3,16,0.00
2013-2-6,41.0,33.6,29.0,31.4,24.7,12.5,95,72,49,30.33,29.90,19,4,20,0.04
2013-2-7,31.3,27.9,24.4,24.6,14.3,8.3,76,57,43,30.50,30.32,14,3,14,0.00
2013-2-8,34.3,32.0,26.3,33.0,29.6,24.7,97,91,76,30.34,29.56,30,9,30,0.21
2013-2-9,28.4,25.6,20.4,26.2,20.7,11.2,96,82,64,30.29,29.67,29,10,38,0.01
2013-2-10,35.0,24.2,14.4,24.1,15.9,7.4,93,71,50,30.45,30.29,26,2,26,0.18
2013-2-11,44.9,37.9,23.3,44.4,37.0,21.5,99,96,90,30.33,29.64,18,2,20,0.78
2013-2-12,45.5,38.7,29.5,39.4,31.6,26.0,99,76,58,29.94,29.69,20,3,23,0.00
2013-2-13,46.3,34.6,23.2,31.6,27.1,21.4,96,76,49,29.93,29.67,11,1,12,0.00
2013-2-14,44.8,37.3,30.5,35.9,30.6,25.2,96,79,49,29.99,29.68,13,2,15,0.01
2013-2-15,52.8,41.3,31.4,39.7,36.0,30.0,97,83,59,30.01,29.90,10,1,13,0.00
2013-2-16,39.7,34.9,28.5,36.6,28.9,21.9,94,80,59,29.94,29.67,21,6,25,0.02
2013-2-17,34.7,26.9,17.2,24.3,14.1,5.0,85,59,39,29.92,29.58,33,11,37,0.00
2013-2-18,34.1,25.1,17.5,17.6,11.5,6.1,68,57,41,30.21,29.92,32,7,35,0.00
2013-2-19,48.8,38.4,26.4,44.2,33.4,17.6,100,82,65,30.21,29.64,21,3,24,0.17
2013-2-20,38.7,31.9,25.0,31.8,19.6,13.1,76,60,43,29.94,29.66,31,8,31,0.00
2013-2-21,36.1,28.7,23.6,19.7,16.7,13.9,72,61,49,30.27,29.92,27,9,29,0.00
2013-2-22,36.7,31.6,25.0,30.6,24.5,18.4,82,75,64,30.38,30.25,18,4,23,0.00
2013-2-23,42.2,37.8,35.4,41.1,35.9,30.6,98,93,82,30.27,29.78,21,3,22,0.24
2013-2-24,45.2,38.0,33.1,39.8,34.6,28.8,98,88,67,29.93,29.70,21,6,23,0.00
2013-2-25,47.5,38.8,30.7,33.2,29.2,25.5,83,69,51,30.22,29.92,14,3,14,0.00
2013-2-26,43.2,38.2,30.7,36.0,32.7,28.6,95,81,65,30.29,29.91,17,4,20,0.14
2013-2-27,48.3,43.3,36.5,48.2,41.8,35.2,100,95,86,29.92,29.48,27,6,30,1.25
2013-2-28,49.9,42.6,37.9,43.7,38.5,34.1,98,86,71,29.61,29.51,12,2,13,0.01
2013-3-1,46.2,38.1,34.4,36.3,33.8,30.2,94,85,60,29.74,29.56,15,4,17,0.01
2013-3-2,43.9,37.0,31.8,30.5,28.6,26.6,92,72,57,29.75,29.66,14,4,16,0.00
2013-3-3,39.6,33.8,29.7,29.8,25.3,21.5,92,71,55,29.70,29.62,18,6,22,0.00
2013-3-4,44.7,34.6,28.4,27.0,23.3,19.8,75,64,47,29.86,29.70,24,7,28,0.00
2013-3-5,47.7,39.0,30.5,31.9,27.7,22.8,77,64,47,30.01,29.86,21,4,21,0.00
2013-3-6,41.5,38.6,34.8,36.7,33.9,30.9,92,83,72,29.98,29.83,37,11,37,0.06
2013-3-7,37.5,34.3,32.8,34.6,32.4,30.6,100,93,83,30.02,29.88,32,10,34,0.27
2013-3-8,38.7,34.1,31.1,34.5,31.9,29.7,100,92,70,30.14,29.95,21,6,23,0.27
2013-3-9,53.1,40.7,30.8,33.3,28.6,25.0,93,65,35,30.32,30.13,19,4,21,0.26
2013-3-10,48.2,36.9,27.1,38.1,32.5,25.6,98,85,66,30.38,30.30,11,2,12,0.01
2013-3-11,55.9,45.8,37.9,47.3,41.9,35.2,96,87,67,30.32,30.09,12,2,15,0.00
2013-3-12,53.5,50.9,43.9,53.0,49.1,40.4,98,94,86,30.10,29.67,31,6,31,0.89
2013-3-13,54.0,43.4,33.2,41.3,34.2,26.1,98,73,44,29.85,29.76,17,3,19,0.00
2013-3-14,38.7,35.0,30.1,31.5,19.0,11.5,78,53,38,29.92,29.82,32,8,33,0.00
2013-3-15,46.4,37.5,29.4,32.1,21.4,11.1,67,52,33,29.94,29.70,24,5,24,0.00
2013-3-16,40.4,35.0,31.4,31.6,27.2,21.8,93,74,56,29.88,29.75,16,3,17,0.02
2013-3-17,38.4,33.7,28.4,30.4,22.6,13.5,93,66,45,30.29,29.88,16,3,17,0.02
2013-3-18,36.1,32.1,28.0,32.1,20.3,13.2,95,63,45,30.40,30.03,23,5,23,0.08
2013-3-19,40.7,36.4,32.8,38.3,34.9,31.3,97,94,87,30.03,29.65,25,6,35,0.83
2013-3-20,48.8,38.1,30.7,31.9,24.7,20.5,86,60,37,29.85,29.76,24,4,31,0.00
2013-3-21,37.2,32.8,28.5,29.6,27.1,21.1,93,80,63,29.83,29.62,16,3,17,0.01
2013-3-22,45.4,35.7,27.4,28.2,22.7,17.0,76,60,44,29.84,29.69,19,5,22,0.04
2013-3-23,49.0,39.6,31.9,28.2,24.0,21.3,71,54,39,29.89,29.76,32,7,32,0.00
2013-3-24,48.1,38.8,29.0,28.8,25.2,20.5,77,59,43,29.92,29.70,14,2,16,0.00
2013-3-25,40.2,37.3,34.8,35.5,32.2,28.5,94,82,67,29.72,29.43,23,6,35,0.19
2013-3-26,55.1,42.3,34.8,37.7,32.3,29.4,87,69,42,29.83,29.54,17,3,19,0.01
2013-3-27,56.8,43.6,31.7,34.9,29.7,26.2,92,60,35,29.93,29.82,17,4,24,0.00
2013-3-28,51.7,43.2,35.7,38.3,33.3,30.3,82,68,54,30.07,29.91,16,4,18,0.00
2013-3-29,61.6,47.9,38.8,37.8,32.7,29.4,73,57,36,30.10,30.01,18,4,19,0.00
2013-3-30,61.4,47.1,34.9,37.0,31.9,24.3,84,59,29,30.13,30.04,17,3,17,0.00
2013-3-31,57.0,44.5,31.1,45.5,36.3,29.0,100,75,44,30.11,29.64,18,3,26,0.15
2013-4-1,63.9,45.5,37.4,51.0,42.0,18.0,98,89,44,29.87,29.59,22,2,24,0.04
2013-4-2,47.5,38.8,31.2,25.2,19.0,15.0,62,46,30,30.05,29.87,23,6,32,0.00
2013-4-3,49.0,39.5,31.9,23.0,18.2,14.4,57,43,29,30.26,30.04,26,7,28,0.00
2013-4-4,51.9,40.3,27.4,34.0,24.8,17.0,77,55,33,30.37,30.08,17,3,19,0.00
2013-4-5,64.1,49.3,40.7,37.7,31.4,21.9,87,55,25,30.08,29.67,22,4,23,0.00
2013-4-6,51.7,42.1,35.3,30.6,21.2,11.2,78,46,20,30.31,29.94,25,5,25,0.00
2013-4-7,54.7,45.5,34.3,45.4,38.1,29.9,92,76,57,30.30,29.99,23,5,27,0.00
2013-4-8,73.2,55.6,41.0,50.4,45.6,39.5,98,72,37,30.06,29.96,13,2,15,0.00
2013-4-9,83.3,64.6,48.3,56.1,48.3,41.5,96,61,30,30.00,29.88,30,3,30,0.00
2013-4-10,69.9,58.2,50.0,56.7,50.4,45.5,96,76,57,30.00,29.78,32,4,36,0.30
2013-4-11,60.4,52.8,46.8,55.8,48.0,37.9,98,85,62,30.05,29.75,15,4,19,0.02
2013-4-12,46.9,42.9,40.2,41.1,38.8,35.7,97,86,67,30.04,29.70,27,8,30,0.64
2013-4-13,59.4,46.5,37.8,44.6,39.5,35.9,97,79,46,29.96,29.71,12,4,19,0.07
2013-4-14,59.1,51.1,44.7,44.2,37.6,30.3,93,63,39,30.21,29.94,21,4,24,0.00
2013-4-15,58.7,48.1,39.4,39.8,34.9,30.9,86,62,41,30.37,30.21,12,2,13,0.00
2013-4-16,62.2,52.8,40.8,54.1,47.7,37.7,94,83,69,30.36,30.11,20,4,20,0.00
2013-4-17,67.6,58.8,49.4,53.9,44.0,34.3,92,62,33,30.28,30.09,15,3,19,0.01
2013-4-18,61.6,52.7,42.7,54.1,44.7,39.3,95,76,44,30.34,30.10,19,3,21,0.00
2013-4-19,68.7,59.8,55.5,63.1,58.3,54.3,100,95,81,30.10,29.64,26,6,30,0.01
2013-4-20,59.5,53.8,47.6,59.0,41.9,30.0,100,68,38,30.25,29.66,20,4,23,0.10
2013-4-21,53.1,44.8,36.3,33.1,27.7,22.1,74,52,32,30.62,30.25,19,5,21,0.00
2013-4-22,52.6,44.6,35.0,38.2,34.7,30.8,90,69,45,30.65,30.48,24,6,29,0.00
2013-4-23,48.3,43.5,40.2,42.7,38.8,34.1,93,83,74,30.49,30.07,20,8,22,0.00
2013-4-24,70.0,52.4,42.1,53.0,45.8,39.8,97,80,49,30.07,29.84,20,4,20,0.00
2013-4-25,65.9,55.8,47.8,51.4,38.3,25.9,95,56,27,30.25,29.85,20,4,22,0.00
2013-4-26,68.4,55.3,38.0,45.8,38.9,31.0,96,58,29,30.39,30.24,16,2,20,0.00
2013-4-27,69.5,54.7,41.4,42.6,36.1,24.7,83,53,21,30.40,30.28,12,2,15,0.00
2013-4-28,69.0,54.9,40.9,48.4,40.3,31.8,100,63,31,30.30,30.20,14,2,15,0.00
2013-4-29,60.3,55.1,52.3,48.1,46.1,40.9,85,72,55,30.24,30.18,13,2,13,0.00
2013-4-30,67.8,56.8,43.5,50.9,38.8,27.2,92,56,26,30.32,30.19,15,2,17,0.00
2013-5-1,67.2,49.9,39.9,51.2,40.6,34.2,97,72,51,30.47,30.31,17,2,17,0.00
2013-5-2,74.2,56.2,39.4,52.9,44.4,37.8,98,68,40,30.45,30.31,10,1,11,0.00
2013-5-3,64.9,54.4,45.5,48.5,42.9,38.2,90,66,41,30.45,30.34,19,4,20,0.00
2013-5-4,68.7,52.3,41.6,52.0,43.5,38.7,98,74,44,30.36,30.24,15,3,17,0.00
2013-5-5,62.8,50.5,40.9,47.6,42.3,38.4,93,75,48,30.28,30.21,15,3,19,0.00
2013-5-6,66.0,54.3,41.7,53.8,47.6,39.3,95,80,59,30.26,30.14,11,2,12,0.00
2013-5-7,71.5,59.6,45.5,60.5,54.2,43.9,97,83,62,30.16,30.07,10,1,12,0.00
2013-5-8,65.2,59.0,53.6,63.3,57.5,52.5,98,95,88,30.09,29.98,18,2,18,0.40
2013-5-9,64.8,57.3,53.1,63.0,56.0,52.2,99,95,86,30.01,29.86,10,1,13,0.61
2013-5-10,80.2,65.1,51.1,63.2,56.8,50.6,99,77,48,29.97,29.88,12,1,13,0.00
2013-5-11,68.1,61.4,58.6,64.1,59.7,56.0,99,94,85,29.88,29.68,13,2,16,0.46
2013-5-12,73.7,61.9,51.5,60.9,49.5,31.7,99,68,36,29.89,29.62,22,2,25,0.05
2013-5-13,61.1,51.6,41.7,39.6,34.8,28.5,80,54,38,30.06,29.89,21,3,21,0.00
2013-5-14,62.2,51.7,42.5,41.4,37.1,29.6,87,60,33,30.09,30.00,15,2,15,0.00
2013-5-15,63.7,55.1,41.8,55.9,49.3,39.9,96,82,51,30.06,29.66,16,2,17,0.00
2013-5-16,81.7,65.5,55.1,59.4,54.3,45.9,97,71,38,29.79,29.68,12,1,12,0.01
2013-5-17,70.6,62.3,51.8,53.1,46.7,42.5,83,58,39,30.18,29.79,15,2,17,0.00
2013-5-18,74.5,58.9,46.8,56.6,51.3,44.6,96,79,46,30.29,30.18,12,0,12,0.09
2013-5-19,58.2,56.6,54.7,57.6,55.5,52.1,98,96,91,30.32,30.16,12,1,14,0.26
2013-5-20,80.3,66.7,58.0,71.1,63.6,57.4,99,91,69,30.17,29.95,8,0,12,0.00
2013-5-21,88.6,72.7,61.2,75.2,67.1,60.3,99,84,60,29.96,29.83,13,1,14,0.00
2013-5-22,80.0,66.5,55.8,71.5,63.3,54.8,98,90,66,29.92,29.83,22,1,22,0.00
2013-5-23,77.3,67.8,63.8,70.9,65.3,62.6,98,92,78,29.90,29.76,20,3,21,0.13
2013-5-24,68.7,58.7,47.2,66.1,56.8,44.4,99,94,81,29.89,29.66,20,4,26,0.22
2013-5-25,49.9,46.8,44.3,47.5,44.4,42.1,97,91,78,29.94,29.83,31,7,31,0.40
2013-5-26,67.3,54.9,45.0,48.0,43.4,40.3,91,67,44,30.17,29.89,24,5,28,0.01
2013-5-27,76.3,59.0,42.6,51.3,44.8,38.8,92,64,31,30.21,30.11,14,1,15,0.00
2013-5-28,74.1,58.5,48.1,57.6,52.8,46.4,98,84,44,30.20,30.12,8,0,8,0.35
2013-5-29,80.9,66.8,56.8,71.3,63.0,56.2,99,89,70,30.13,29.99,8,0,9,0.01
2013-5-30,95.1,78.7,66.6,75.3,67.9,64.0,95,72,45,30.10,30.04,13,1,13,0.00
2013-5-31,96.3,78.8,66.8,77.9,67.9,63.4,95,71,41,30.10,29.97,12,1,12,0.00
2013-6-1,90.6,74.4,67.2,75.2,67.4,64.3,93,80,55,30.00,29.90,12,1,16,0.00
2013-6-2,86.3,73.1,64.9,74.0,66.7,62.9,95,81,63,29.91,29.77,16,2,19,0.00
2013-6-3,75.5,69.6,66.1,70.3,67.0,58.3,98,92,72,29.84,29.77,10,1,14,0.39
2013-6-4,74.6,65.7,55.7,58.5,50.8,46.1,84,60,41,30.08,29.84,14,2,17,0.00
2013-6-5,77.3,64.0,53.3,57.9,51.0,45.7,91,64,41,30.19,30.08,11,1,12,0.00
2013-6-6,74.8,64.6,55.6,62.0,57.0,50.6,97,78,50,30.13,30.01,13,1,15,0.00
2013-6-7,62.3,60.4,58.0,61.7,59.3,57.4,98,96,87,30.00,29.62,19,4,22,3.60
2013-6-8,81.1,66.5,55.2,71.0,62.2,54.7,99,87,64,30.02,29.54,18,2,21,0.45
2013-6-9,82.3,70.1,57.8,67.2,61.5,57.0,99,76,52,30.15,30.02,10,1,12,0.00
2013-6-10,73.7,64.8,61.7,67.4,63.0,59.8,99,94,77,30.15,29.84,15,1,17,1.04
2013-6-11,82.3,71.7,64.0,72.8,67.7,59.4,99,88,66,29.84,29.58,14,1,15,0.43
2013-6-12,76.8,69.6,59.0,60.2,57.8,55.1,92,67,51,29.83,29.66,22,4,23,0.00
2013-6-13,64.7,60.5,55.9,61.4,58.2,54.3,97,92,82,29.81,29.47,29,3,34,0.58
2013-6-14,72.1,60.1,53.1,62.1,55.7,52.2,97,86,60,29.84,29.48,21,4,28,0.28
2013-6-15,81.7,69.7,57.7,61.4,57.6,52.3,95,69,40,29.98,29.84,15,2,15,0.00
2013-6-16,82.6,69.9,57.5,69.0,61.7,54.3,93,76,46,29.96,29.74,18,1,18,0.00
2013-6-17,90.3,76.1,63.6,73.6,67.4,62.2,98,76,48,29.90,29.81,12,1,14,0.00
2013-6-18,85.9,70.6,62.1,73.3,66.2,60.7,98,87,54,29.88,29.80,15,1,17,0.16
2013-6-19,77.0,66.6,57.9,61.8,55.7,44.2,96,71,40,30.15,29.85,15,2,17,0.01
2013-6-20,83.0,67.5,54.0,64.4,57.3,52.3,97,72,45,30.25,30.15,11,1,12,0.00
2013-6-21,86.0,71.0,58.5,68.0,59.3,55.6,92,69,45,30.28,30.22,9,1,12,0.00
2013-6-22,86.6,71.1,57.9,67.5,61.0,55.8,96,72,43,30.24,30.12,11,1,11,0.00
2013-6-23,89.3,76.0,64.3,75.6,67.9,59.5,95,77,56,30.17,30.05,12,1,15,0.01
2013-6-24,94.4,80.3,70.5,77.7,71.8,65.4,97,77,53,30.06,29.91,17,1,23,0.00
2013-6-25,95.3,81.3,69.1,77.8,70.6,64.7,91,71,50,29.97,29.77,14,1,14,0.00
2013-6-26,89.9,80.5,73.6,74.1,70.7,68.0,88,73,57,29.81,29.73,11,1,14,0.00
2013-6-27,84.4,75.7,71.3,75.3,71.5,69.2,97,87,73,29.80,29.57,16,2,17,0.06
2013-6-28,85.4,76.8,71.8,75.4,72.2,70.0,97,86,68,29.57,29.46,13,2,16,0.00
2013-6-29,86.3,74.8,67.9,74.1,70.4,66.7,96,87,62,29.69,29.47,12,1,14,0.01
2013-6-30,86.3,74.2,68.3,78.0,71.7,67.2,98,92,72,29.91,29.69,11,1,17,0.00
2013-7-1,83.0,73.6,72.4,76.8,72.4,71.4,98,96,81,30.06,29.89,12,1,13,0.67
2013-7-2,80.0,74.9,71.8,76.0,72.8,71.0,98,93,84,30.17,30.05,15,1,15,0.14
2013-7-3,85.4,75.6,69.9,77.7,72.7,69.3,99,91,73,30.23,30.16,12,1,12,0.01
2013-7-4,89.0,79.2,72.7,79.5,74.5,71.5,98,86,70,30.23,30.14,11,1,12,0.00
2013-7-5,92.3,81.2,72.7,80.9,74.6,71.5,97,81,61,30.19,30.07,12,1,13,0.00
2013-7-6,93.6,83.6,74.7,78.7,74.8,72.3,94,76,56,30.11,29.99,15,1,15,0.00
2013-7-7,92.4,83.2,75.7,78.7,75.3,72.9,92,78,57,30.03,29.91,9,1,12,0.00
2013-7-8,90.9,80.5,72.3,74.5,70.8,66.6,87,73,53,30.01,29.94,10,1,13,0.00
2013-7-9,87.8,78.0,68.9,77.3,71.9,66.9,95,82,60,30.04,29.97,7,0,10,0.06
2013-7-10,88.5,81.2,74.2,78.2,75.2,71.3,92,82,69,30.00,29.78,12,1,12,0.04
2013-7-11,82.9,77.2,72.4,75.5,72.8,67.5,96,87,66,29.90,29.78,8,0,11,0.10
2013-7-12,76.2,72.0,67.7,70.4,67.7,65.4,97,87,80,30.10,29.89,19,4,19,0.44
2013-7-13,79.1,73.4,67.9,76.4,72.1,66.9,99,96,89,30.26,30.10,12,1,12,0.06
2013-7-14,92.3,80.8,72.5,79.0,75.1,71.7,99,84,60,30.31,30.21,11,1,13,0.00
2013-7-15,95.9,84.4,75.3,78.8,75.0,72.2,93,75,55,30.21,30.10,12,1,13,0.00
2013-7-16,96.2,84.4,74.6,75.6,71.3,68.5,92,67,43,30.16,30.09,12,2,14,0.00
2013-7-17,96.1,83.4,72.2,76.3,72.1,68.4,92,71,42,30.16,30.03,10,1,11,0.00
2013-7-18,100.0,87.1,76.0,80.4,75.3,71.3,88,70,45,30.04,29.92,13,1,13,0.00
2013-7-19,98.3,86.6,78.7,83.0,78.3,75.9,93,77,55,29.94,29.76,12,1,12,0.04
2013-7-20,95.5,85.8,77.8,79.7,74.4,67.1,92,70,54,29.81,29.68,15,1,17,0.00
2013-7-21,85.9,79.5,73.1,72.1,69.5,64.2,92,73,52,29.94,29.80,12,2,14,0.00
2013-7-22,82.7,76.4,71.8,76.7,73.5,70.1,96,91,80,29.94,29.80,9,1,14,0.02
2013-7-23,87.5,78.2,71.9,77.7,74.5,70.7,99,89,69,29.80,29.51,15,1,15,0.86
2013-7-24,85.5,76.6,69.2,75.4,70.0,59.4,99,81,62,29.90,29.58,15,2,16,0.01
2013-7-25,69.2,63.6,61.7,61.2,58.2,53.8,95,83,71,30.03,29.90,19,4,22,0.07
2013-7-26,79.3,68.6,61.7,68.2,63.4,60.0,96,84,62,30.03,29.95,15,2,19,0.05
2013-7-27,86.6,74.1,64.7,71.8,66.5,63.8,99,79,50,30.04,29.95,10,0,11,0.00
2013-7-28,81.3,72.8,64.1,71.7,68.0,63.2,99,86,65,29.98,29.91,8,0,12,0.01
2013-7-29,88.2,77.0,67.6,75.1,68.3,56.2,99,76,51,30.06,29.92,10,0,13,0.03
2013-7-30,84.2,73.2,60.7,65.5,60.9,58.0,94,67,46,30.13,30.06,12,1,14,0.00
2013-7-31,85.1,73.2,61.5,66.6,62.5,59.3,97,71,43,30.13,30.02,10,1,12,0.00
2013-8-1,79.1,70.7,66.9,70.4,66.8,64.3,98,88,69,30.03,29.81,8,0,13,0.24
2013-8-2,87.2,75.9,67.8,70.8,67.6,62.1,98,78,46,29.88,29.76,14,1,17,0.00
2013-8-3,78.3,70.9,65.7,69.9,65.5,60.8,93,83,66,29.89,29.81,10,0,12,0.02
2013-8-4,83.7,72.2,62.9,65.5,61.5,56.5,96,72,44,29.92,29.81,18,2,19,0.00
2013-8-5,79.3,68.9,59.0,58.6,54.6,49.6,88,63,38,30.02,29.92,18,2,18,0.00
2013-8-6,82.0,68.6,56.7,66.7,59.5,55.3,98,75,46,30.11,30.01,12,1,12,0.00
2013-8-7,78.1,69.8,59.2,67.9,63.3,56.7,96,81,64,30.14,30.06,11,1,14,0.00
2013-8-8,81.6,73.5,68.0,75.0,70.5,66.3,97,90,79,30.06,29.99,10,1,13,0.03
2013-8-9,83.8,76.5,73.5,77.6,74.1,71.4,97,92,80,30.01,29.78,13,2,21,0.05
2013-8-10,83.9,76.0,67.3,73.2,66.4,60.6,98,74,53,30.02,29.82,12,2,15,0.00
2013-8-11,83.1,71.7,58.7,64.3,59.3,54.0,91,67,42,30.10,30.01,11,1,12,0.00
2013-8-12,79.0,72.2,68.1,70.8,68.1,64.1,97,87,68,30.02,29.91,7,0,9,0.03
2013-8-13,73.0,70.1,66.1,72.3,68.7,65.2,99,96,87,29.92,29.69,10,0,11,0.39
2013-8-14,76.8,69.5,61.4,68.5,57.6,52.4,97,68,48,30.01,29.71,21,4,21,0.00
2013-8-15,80.6,67.5,53.4,59.2,54.9,48.6,98,68,37,30.12,30.01,11,1,14,0.00
2013-8-16,80.3,67.8,55.0,64.8,57.2,53.9,98,72,42,30.19,30.10,7,0,9,0.00
2013-8-17,84.5,69.5,56.9,63.2,58.7,52.5,99,72,37,30.26,30.19,10,1,11,0.00
2013-8-18,77.2,67.9,61.3,66.4,61.9,58.1,95,82,57,30.24,30.11,9,1,10,0.00
2013-8-19,81.8,70.5,59.8,67.6,62.7,57.1,94,78,57,30.11,30.00,10,0,11,0.00
2013-8-20,89.1,75.2,63.1,69.5,65.4,61.9,98,75,44,30.10,30.01,10,1,13,0.00
2013-8-21,92.3,77.1,64.7,70.2,66.2,59.7,99,74,36,30.15,30.03,11,1,11,0.00
2013-8-22,81.0,73.4,68.6,75.7,71.0,67.2,97,92,79,30.04,29.84,8,0,9,0.10
2013-8-23,82.7,74.4,68.8,69.4,64.8,60.2,98,74,50,30.03,29.84,15,2,16,0.01
2013-8-24,79.8,71.4,58.9,60.8,57.3,51.2,93,63,40,30.33,30.26,12,2,15,0.00
2013-8-25,84.5,69.9,54.0,66.2,57.2,50.7,100,69,32,30.37,30.21,11,1,13,0.00
2013-8-26,86.2,69.0,67.1,66.9,59.6,57.6,76,72,50,30.21,30.03,7,0,10,0.00
2013-8-27,85.7,78.9,71.3,75.0,70.5,68.9,94,76,65,29.89,29.81,16,2,16,0.10
2013-8-28,88.5,75.8,66.3,73.8,69.8,65.1,98,83,57,29.88,29.82,7,0,8,0.00
2013-8-29,77.3,71.5,67.0,69.4,66.8,63.5,97,86,67,30.02,29.86,15,3,17,0.01
2013-8-30,83.9,73.3,65.7,72.5,67.9,62.8,93,84,62,30.02,29.84,8,0,10,0.00
2013-8-31,88.7,77.0,70.1,75.9,71.9,68.4,96,85,64,29.85,29.78,10,1,12,0.00
2013-9-1,87.5,75.6,72.1,76.3,72.7,71.0,98,91,67,29.84,29.79,9,1,12,0.00
2013-9-2,80.7,75.8,70.9,76.2,73.8,69.7,98,94,85,29.80,29.69,7,0,8,0.00
2013-9-3,81.6,73.6,68.2,74.0,67.9,59.5,99,84,58,29.85,29.69,13,1,16,0.09
2013-9-4,84.8,72.1,61.6,65.0,59.5,54.3,92,67,38,29.96,29.84,15,1,15,0.00
2013-9-5,79.8,68.9,60.2,65.4,56.3,44.5,94,66,40,30.11,29.89,15,2,18,0.00
2013-9-6,72.8,62.1,51.6,50.7,47.6,43.3,88,61,39,30.23,30.11,18,2,18,0.00
2013-9-7,82.9,65.2,49.1,61.0,52.5,45.4,96,68,29,30.11,29.88,9,1,11,0.00
2013-9-8,84.9,71.5,61.8,67.7,59.2,49.6,91,66,46,30.06,29.78,18,2,18,0.00
2013-9-9,75.3,63.4,48.6,58.9,50.9,45.6,92,66,40,30.22,30.05,13,1,13,0.00
2013-9-10,80.0,72.4,62.0,72.8,68.0,58.7,94,86,76,30.15,30.03,11,1,15,0.01
2013-9-11,97.3,81.0,72.0,79.9,73.5,70.6,97,80,55,30.09,29.97,13,1,13,0.00
2013-9-12,90.5,76.4,69.3,76.3,71.6,68.4,97,86,62,29.97,29.67,19,1,23,0.26
2013-9-13,76.7,69.3,60.1,70.0,64.1,53.3,99,84,64,29.80,29.60,21,2,23,0.04
2013-9-14,71.5,60.3,54.4,54.7,51.3,48.8,86,73,52,30.09,29.80,17,4,17,0.00
2013-9-15,73.9,59.8,46.8,57.0,50.1,44.4,97,74,37,30.19,30.07,7,0,9,0.00
2013-9-16,72.4,63.0,57.0,60.8,55.9,48.3,97,79,57,30.20,30.01,18,2,21,0.01
2013-9-17,63.1,54.3,45.5,48.2,42.1,38.3,93,65,46,30.41,30.21,23,4,24,0.00
2013-9-18,75.5,57.3,43.1,53.0,47.8,41.6,98,74,39,30.33,30.17,8,0,10,0.00
2013-9-19,81.5,62.5,47.7,56.3,52.2,46.6,98,74,32,30.18,30.05,8,0,10,0.00
2013-9-20,82.8,64.8,50.8,63.0,56.7,49.7,99,79,39,30.07,29.99,8,0,10,0.00
2013-9-21,78.0,65.4,50.9,68.4,62.0,50.1,99,89,70,30.00,29.67,19,2,25,0.00
2013-9-22,73.1,65.0,54.9,68.0,56.4,43.9,98,76,50,29.88,29.63,22,4,22,0.66
2013-9-23,67.7,57.4,50.2,47.8,44.6,41.6,75,63,46,30.02,29.88,21,4,21,0.00
2013-9-24,69.9,57.4,46.1,52.0,46.9,41.8,91,70,46,30.03,29.84,14,2,18,0.00
2013-9-25,74.2,59.4,46.5,54.3,49.8,44.9,97,73,43,29.93,29.85,10,1,12,0.00
2013-9-26,70.0,59.7,50.8,58.0,54.3,49.1,98,83,59,30.08,29.91,13,2,14,0.00
2013-9-27,64.8,58.4,49.4,57.3,52.9,48.0,98,83,68,30.25,30.08,17,2,17,0.00
2013-9-28,73.5,61.7,52.5,58.6,54.3,50.5,96,79,53,30.30,30.22,15,2,15,0.00
2013-9-29,70.2,57.6,48.4,58.9,50.1,41.4,99,79,42,30.22,30.07,13,1,15,0.00
2013-9-30,71.4,59.0,47.2,58.4,52.7,45.8,100,82,49,30.07,29.95,11,1,11,0.00
2013-10-1,82.0,58.9,53.0,60.6,54.4,52.1,99,88,42,29.98,29.87,12,0,13,0.00
2013-10-2,84.7,68.1,55.2,64.8,60.2,53.7,99,78,49,29.98,29.88,19,1,19,0.00
2013-10-3,78.5,65.8,53.1,59.7,55.6,48.9,99,73,37,30.10,29.98,7,0,9,0.00
2013-10-4,69.2,60.9,58.3,65.0,58.6,56.8,98,92,87,30.05,30.02,4,0,5,0.00
2013-10-5,73.8,66.0,63.7,65.6,63.3,61.6,96,91,74,30.08,29.99,7,2,11,0.00
2013-10-6,66.7,64.8,63.9,66.4,64.1,62.9,99,98,94,30.10,30.03,12,1,12,0.06
2013-10-7,76.7,69.1,61.2,71.3,66.6,55.2,99,92,81,30.03,29.79,27,2,29,0.04
2013-10-8,66.7,60.2,55.1,55.1,47.8,42.9,82,65,44,30.30,29.95,22,3,22,0.01
2013-10-9,62.0,58.1,55.0,51.3,48.6,39.0,81,71,49,30.38,30.27,20,5,22,0.00
2013-10-10,63.1,58.2,55.1,58.4,54.1,50.5,95,86,81,30.28,30.07,20,7,22,0.03
2013-10-11,67.4,62.5,58.7,61.4,57.8,52.9,92,85,68,30.08,30.00,20,6,21,0.00
2013-10-12,70.5,62.5,58.4,56.0,49.9,39.7,77,64,34,30.18,30.06,21,7,26,0.00
2013-10-13,62.1,57.1,50.0,54.8,52.1,47.1,92,84,69,30.37,30.27,18,7,25,0.00
2013-10-14,64.3,52.8,42.2,53.2,47.9,40.9,98,85,63,30.36,30.24,12,1,12,0.00
2013-10-15,70.0,55.6,44.8,58.7,50.4,43.7,99,84,57,30.25,30.10,15,1,15,0.00
2013-10-16,68.6,59.3,48.2,59.8,55.9,46.5,98,89,72,30.10,29.90,11,1,11,0.00
2013-10-17,76.7,65.0,60.5,64.5,61.4,59.1,96,89,65,29.91,29.69,11,1,13,0.00
2013-10-18,67.9,60.7,48.5,63.1,51.8,44.8,97,74,50,29.95,29.65,20,2,22,0.02
2013-10-19,65.3,53.8,42.2,56.8,47.3,40.6,97,81,49,29.98,29.73,12,0,12,0.00
2013-10-20,63.7,54.9,42.7,57.4,44.3,39.0,93,69,44,30.04,29.71,18,2,22,0.00
2013-10-21,70.1,52.5,38.8,48.2,41.8,37.0,97,71,34,30.13,29.98,9,0,11,0.00
2013-10-22,72.2,55.0,43.1,55.2,47.0,41.8,99,77,46,29.98,29.72,13,0,15,0.00
2013-10-23,51.8,48.8,41.9,45.5,39.4,35.9,90,70,57,29.79,29.59,13,2,16,0.00
2013-10-24,57.1,47.0,41.1,39.3,34.3,29.9,82,63,40,29.96,29.71,17,2,19,0.00
2013-10-25,53.3,45.6,36.7,37.7,33.9,31.0,84,64,47,30.20,29.96,20,3,21,0.00
2013-10-26,58.0,45.6,32.1,38.8,33.7,30.3,96,67,37,30.19,29.89,13,1,17,0.00
2013-10-27,58.6,49.1,38.0,41.3,36.6,33.5,85,63,43,30.09,29.83,18,2,21,0.00
2013-10-28,62.3,47.7,34.3,39.6,36.1,32.0,94,67,39,30.30,30.09,20,1,20,0.00
2013-10-29,52.2,46.3,36.6,39.4,35.5,33.2,89,67,49,30.40,30.30,14,2,18,0.00
2013-10-30,62.1,49.7,37.9,52.1,44.5,34.7,95,83,64,30.34,30.17,6,0,13,0.00
2013-10-31,67.3,56.9,43.4,61.5,54.4,42.1,98,91,78,30.21,29.82,17,2,22,0.00
2013-11-1,66.5,63.0,58.9,63.1,60.1,56.5,97,91,74,29.81,29.53,22,3,26,0.03
2013-11-2,68.1,58.4,50.4,57.5,49.8,43.1,96,75,47,29.74,29.59,8,1,9,0.00
2013-11-3,53.1,46.3,37.4,44.4,37.1,21.4,89,71,52,30.41,29.74,22,4,22,0.00
2013-11-4,43.2,36.2,31.5,28.0,22.5,19.9,83,58,45,30.65,30.41,20,5,25,0.00
2013-11-5,56.3,44.2,32.2,40.4,36.1,26.8,90,74,53,30.65,30.49,10,1,11,0.00
2013-11-6,63.6,50.5,36.6,56.0,45.4,35.0,98,84,53,30.49,30.05,13,1,14,0.00
2013-11-7,63.6,55.9,42.9,60.7,52.6,31.9,97,89,64,30.05,29.72,20,3,25,0.10
2013-11-8,50.4,43.9,39.4,35.2,31.4,27.5,80,62,47,30.18,29.88,23,5,26,0.00
2013-11-9,49.1,43.3,32.4,37.7,31.2,27.6,87,63,44,30.26,30.00,13,1,17,0.00
2013-11-10,62.9,50.3,42.2,41.1,36.9,29.7,80,61,35,30.00,29.76,25,4,33,0.00
2013-11-11,53.7,48.6,41.7,35.6,31.8,29.0,62,52,40,30.16,29.94,21,4,21,0.00
2013-11-12,50.8,38.2,30.9,40.3,29.6,20.7,94,72,55,30.24,29.90,21,5,24,0.03
2013-11-13,38.1,32.3,27.5,23.0,19.8,16.0,72,60,42,30.33,30.24,19,4,21,0.00
2013-11-14,53.6,41.9,29.2,25.5,22.4,19.1,72,48,26,30.25,30.12,13,2,16,0.00
2013-11-15,59.5,46.4,34.8,41.3,32.9,25.3,88,61,34,30.23,30.14,9,0,9,0.00
2013-11-16,62.0,48.1,39.3,49.4,42.1,33.3,95,81,54,30.31,30.20,8,0,8,0.01
2013-11-17,61.6,54.2,39.7,60.7,53.3,38.4,99,97,95,30.27,29.78,8,1,11,0.01
2013-11-18,66.7,59.2,49.9,60.8,46.0,31.6,99,66,36,29.78,29.58,23,4,23,0.04
2013-11-19,50.5,43.6,34.3,33.2,28.8,24.3,67,56,48,30.31,29.73,24,8,31,0.00
2013-11-20,42.4,34.1,26.6,24.5,21.3,16.4,83,61,36,30.59,30.31,19,4,21,0.00
2013-11-21,51.4,39.3,25.1,41.5,32.2,21.9,94,77,55,30.61,30.38,11,1,11,0.00
2013-11-22,54.6,51.4,46.1,52.0,48.3,41.5,96,89,84,30.37,29.86,9,1,11,0.00
2013-11-23,52.6,43.1,30.5,50.2,30.3,12.3,93,62,44,29.99,29.85,30,6,31,0.00
2013-11-24,30.6,26.6,23.3,15.6,8.3,0.6,57,46,29,30.33,29.94,33,10,35,0.00
2013-11-25,36.2,29.3,22.2,18.8,15.1,9.2,76,56,39,30.45,30.32,19,3,19,0.00
2013-11-26,51.9,38.3,33.2,51.4,28.2,18.1,98,69,45,30.33,29.81,13,1,19,0.01
2013-11-27,62.1,49.7,34.9,61.5,48.2,26.1,98,95,70,29.81,29.27,34,7,34,0.01
2013-11-28,34.9,31.3,25.8,26.1,18.8,14.4,76,60,46,30.46,29.67,28,6,33,0.00
2013-11-29,39.6,32.1,28.4,25.4,22.0,18.7,82,67,51,30.71,30.45,13,2,19,0.00
2013-11-30,37.8,31.3,25.0,29.4,21.3,16.4,81,67,44,30.74,30.36,11,1,13,0.00
2013-12-1,49.6,41.4,34.9,43.1,37.3,29.4,96,85,75,30.36,29.99,9,1,9,0.00
2013-12-2,47.7,39.4,33.5,42.4,36.9,32.2,97,91,81,29.99,29.87,9,1,10,0.00
2013-12-3,52.1,40.3,32.7,40.3,35.8,30.8,98,85,58,29.99,29.85,10,1,10,0.00
2013-12-4,51.8,41.4,31.0,42.6,37.0,29.5,97,85,64,30.13,29.98,7,0,8,0.00
2013-12-5,57.9,53.4,44.3,56.8,52.3,42.6,98,96,92,30.13,29.92,12,1,12,0.02
2013-12-6,57.1,46.8,36.6,56.7,45.7,35.3,99,96,89,30.12,29.86,19,4,21,0.00
2013-12-7,41.1,36.5,30.9,35.9,31.1,21.9,96,81,66,30.49,30.05,18,4,22,0.00
2013-12-8,33.2,29.9,27.8,30.4,22.4,20.5,95,74,61,30.58,30.37,15,2,15,0.00
2013-12-9,40.7,37.0,31.7,40.2,36.1,30.4,98,97,94,30.37,29.92,18,5,22,0.00
2013-12-10,36.1,32.8,28.3,34.0,30.6,20.7,97,92,73,30.09,29.80,18,2,19,0.00
2013-12-11,34.8,29.8,25.4,22.0,19.5,17.1,72,65,55,30.29,30.09,17,2,20,0.00
2013-12-12,28.7,24.6,18.5,19.3,13.1,7.5,77,61,50,30.32,30.13,18,4,23,0.00
2013-12-13,35.1,28.6,22.5,21.7,15.6,8.6,77,58,50,30.32,30.09,20,3,23,0.00
2013-12-14,39.9,26.9,23.3,39.3,23.6,18.6,98,88,73,30.50,29.82,20,6,27,0.01
2013-12-15,41.6,36.0,32.3,41.1,32.6,23.4,98,87,69,29.83,29.44,22,5,27,0.00
2013-12-16,32.5,27.6,17.6,25.3,16.5,12.3,85,63,48,30.22,29.80,19,3,21,0.00
2013-12-17,33.9,25.3,17.6,32.9,22.4,13.8,96,89,71,30.22,29.90,15,3,16,0.01
2013-12-18,36.0,28.8,23.5,28.0,23.7,21.3,92,81,67,30.15,29.88,18,3,21,0.00
2013-12-19,46.8,36.7,23.9,32.8,27.6,20.6,89,71,48,30.16,30.00,13,1,17,0.00
2013-12-20,52.8,43.3,32.5,43.7,36.2,29.6,95,77,55,30.11,29.95,11,1,12,0.00
2013-12-21,59.8,52.7,45.6,53.4,48.9,43.7,96,88,71,29.99,29.89,14,2,16,0.00
2013-12-22,64.2,59.5,54.1,59.8,56.6,51.9,97,90,79,29.95,29.80,24,5,26,0.00
2013-12-23,58.9,53.2,40.5,57.7,52.0,37.3,99,95,88,30.12,29.85,17,2,20,0.13
2013-12-24,40.5,35.1,27.0,37.4,27.8,16.8,92,75,56,30.29,30.05,23,6,27,0.00
2013-12-25,27.2,24.2,19.2,16.7,12.7,10.7,71,61,51,30.51,30.29,22,4,22,0.00
2013-12-26,38.2,30.4,24.3,29.3,24.6,15.4,92,79,65,30.43,30.13,13,1,15,0.00
2013-12-27,42.4,32.2,24.1,26.0,23.6,19.8,91,72,42,30.34,30.24,16,1,18,0.00
2013-12-28,55.1,42.4,27.6,32.5,29.5,23.8,92,62,39,30.27,30.05,17,2,17,0.00
2013-12-29,48.0,43.3,40.2,47.5,38.1,30.2,98,83,60,30.06,29.34,20,2,22,1.39
2013-12-30,43.4,35.5,22.2,40.5,29.5,14.5,95,79,61,30.17,29.65,17,4,20,0.00
2013-12-31,32.7,26.7,19.5,24.3,16.8,12.3,79,66,54,30.25,30.04,18,3,22,0.00
2014-1-1,32.6,27.4,21.4,23.0,16.1,11.2,73,62,54,30.40,30.24,12,1,15,0.00
2014-1-2,31.6,26.0,16.5,26.6,23.2,14.6,94,89,70,30.26,29.65,25,9,29,0.00